Pocono Lake Preserve, Pennsylvania
Current Conditions -  °F | °C
As of 11:53 AM on Thursday 23 Oct 2014 (Local Time) from KMPO Reporting Station
Overcast Overcast  
Wind Chill: 35°   Ceiling: 500
Heat Index: 43°   Visibility: 10mi
Dew Point: 40°   Wind: 18mph
Humidity: 89%   Direction: 330°NNW
Pressure: 29.8"   Gusts: 25mph
Location:  41.1°N, 75.48°W
Report Text: KMPO 231553Z AUTO 33016G22KT 10SM OVC005 06/04 A2980 RMK AO2 PK WND 31026/1506 RAE26 SLP097 T00610044 TSNO PNO $
Loading
Personal Weather Stations






























Interactive Weather Map
Tropical Storm Tracking
New forecast layout! Learn more

10-Day Weather Forecast

Advertisements
Track Severe Weather on mobile